Time;durP1;ratioP1;P1;durP2;ratioP2;P2;SDS_P1;SDS_P2;PMS_P1;PMS_P2;Temp;Humidity;BMP_temperature;BMP_pressure;BME280_temperature;BME280_humidity;BME280_pressure;Samples;Min_cycle;Max_cycle;Signal;HPM_P1;HPM_P2
2024/04/02 00:03:31;;;;;;;2.13;1.37;;;;;8.80;99715.00;;;;10359125;28;20246;-80
2024/04/02 00:08:32;;;;;;;3.13;1.43;;;;;8.90;99708.00;;;;10370739;28;20566;-80
2024/04/02 00:13:34;;;;;;;4.17;1.57;;;;;8.90;99715.00;;;;10382721;28;20226;-80
2024/04/02 00:18:35;;;;;;;7.47;1.40;;;;;8.90;99722.00;;;;10367679;28;20253;-80
2024/04/02 00:23:36;;;;;;;4.53;1.23;;;;;8.80;99732.00;;;;10381170;28;20222;-80
2024/04/02 00:28:38;;;;;;;3.47;1.30;;;;;8.70;99725.00;;;;10363677;28;20890;-79
2024/04/02 00:33:39;;;;;;;3.03;1.50;;;;;8.70;99730.00;;;;10348217;28;20221;-80
2024/04/02 00:38:39;;;;;;;2.93;1.53;;;;;8.60;99737.00;;;;10373246;28;20313;-80
2024/04/02 00:43:40;;;;;;;2.17;1.10;;;;;8.60;99728.00;;;;10370767;28;20225;-79
2024/04/02 00:48:42;;;;;;;3.87;1.33;;;;;8.50;99729.00;;;;10362519;28;20218;-80
2024/04/02 00:53:43;;;;;;;4.87;1.40;;;;;8.40;99740.00;;;;10373417;28;20732;-80
2024/04/02 00:58:44;;;;;;;3.77;1.33;;;;;8.40;99744.00;;;;10369024;28;20250;-79
2024/04/02 01:03:45;;;;;;;4.33;1.33;;;;;8.30;99750.00;;;;10372774;28;21047;-80
2024/04/02 01:08:47;;;;;;;2.70;2.30;;;;;8.30;99746.00;;;;10369252;28;20233;-81
2024/04/02 01:13:48;;;;;;;3.20;1.87;;;;;8.40;99760.00;;;;10362068;28;20220;-80
2024/04/02 01:18:49;;;;;;;4.00;1.70;;;;;8.50;99768.00;;;;10378138;28;20226;-80
2024/04/02 01:23:50;;;;;;;3.27;1.87;;;;;8.60;99761.00;;;;10369740;28;20226;-80
2024/04/02 01:28:58;;;;;;;5.70;1.63;;;;;8.60;99766.00;;;;10378462;28;20229;-79
2024/04/02 01:33:59;;;;;;;2.97;1.20;;;;;8.60;99768.00;;;;10386248;28;20218;-79
2024/04/02 01:39:00;;;;;;;4.13;1.70;;;;;8.80;99772.00;;;;10373865;28;20268;-79
2024/04/02 01:44:02;;;;;;;4.20;1.50;;;;;8.80;99770.00;;;;10404094;28;20230;-81
2024/04/02 01:49:03;;;;;;;3.43;1.30;;;;;8.70;99773.00;;;;10348317;28;20219;-81
2024/04/02 01:54:04;;;;;;;5.47;1.57;;;;;8.60;99785.00;;;;10360359;28;20217;-78
2024/04/02 01:59:05;;;;;;;1.83;1.17;;;;;8.50;99788.00;;;;10380378;28;20673;-78
2024/04/02 02:04:06;;;;;;;5.20;1.80;;;;;8.50;99791.00;;;;10412087;28;20217;-78
2024/04/02 02:09:08;;;;;;;4.80;1.43;;;;;8.50;99788.00;;;;10390449;28;20213;-78
2024/04/02 02:14:09;;;;;;;8.37;1.90;;;;;8.60;99799.00;;;;10381001;28;20230;-78
2024/04/02 02:19:10;;;;;;;7.43;1.43;;;;;8.70;99803.00;;;;10386241;28;20234;-78
2024/04/02 02:24:11;;;;;;;5.27;1.60;;;;;8.80;99793.00;;;;10384665;28;20305;-78
2024/04/02 02:29:12;;;;;;;4.13;1.60;;;;;8.70;99811.00;;;;10364376;28;20598;-78
2024/04/02 02:34:14;;;;;;;3.73;1.37;;;;;8.70;99817.00;;;;10368329;28;20221;-78
2024/04/02 02:39:15;;;;;;;3.07;1.40;;;;;8.70;99817.00;;;;10399712;28;20230;-79
2024/04/02 02:44:16;;;;;;;7.03;1.13;;;;;8.70;99821.00;;;;10364923;28;20986;-78
2024/04/02 02:49:17;;;;;;;5.77;1.50;;;;;8.60;99822.00;;;;10373116;28;20359;-78
2024/04/02 02:54:18;;;;;;;4.70;1.87;;;;;8.60;99835.00;;;;10378753;28;21045;-78
2024/04/02 02:59:19;;;;;;;4.10;1.87;;;;;8.70;99836.00;;;;10391528;28;20662;-78
2024/04/02 03:04:20;;;;;;;4.37;1.33;;;;;8.70;99842.00;;;;10390434;28;20224;-79
2024/04/02 03:09:21;;;;;;;5.40;1.50;;;;;8.70;99845.00;;;;10358029;28;20743;-78
2024/04/02 03:14:22;;;;;;;3.40;1.60;;;;;8.60;99842.00;;;;10372532;28;20230;-80
2024/04/02 03:19:23;;;;;;;4.17;1.37;;;;;8.50;99847.00;;;;10391066;28;20272;-78
2024/04/02 03:24:24;;;;;;;7.07;1.80;;;;;8.50;99850.00;;;;10417175;28;20214;-78
2024/04/02 03:29:25;;;;;;;5.27;1.27;;;;;8.60;99865.00;;;;10388714;28;20234;-78
2024/04/02 03:34:27;;;;;;;6.60;1.57;;;;;8.50;99870.00;;;;10390853;28;20249;-77
2024/04/02 03:39:28;;;;;;;6.77;1.60;;;;;8.50;99881.00;;;;10386350;28;20694;-79
2024/04/02 03:44:29;;;;;;;5.47;1.20;;;;;8.50;99869.00;;;;10373190;28;20222;-78
2024/04/02 03:49:30;;;;;;;7.30;1.90;;;;;8.50;99878.00;;;;10362689;28;20874;-77
2024/04/02 03:54:31;;;;;;;8.07;1.77;;;;;8.50;99878.00;;;;10364390;28;20229;-78
2024/04/02 03:59:36;;;;;;;8.00;1.83;;;;;8.50;99880.00;;;;10368355;28;20860;-78
2024/04/02 04:04:37;;;;;;;11.47;1.73;;;;;8.40;99876.00;;;;10393849;28;20213;-78
2024/04/02 04:09:38;;;;;;;11.27;2.13;;;;;8.40;99877.00;;;;10376729;28;20210;-78
2024/04/02 04:14:39;;;;;;;12.07;1.80;;;;;8.40;99884.00;;;;10387018;28;20673;-76
2024/04/02 04:19:40;;;;;;;10.53;2.03;;;;;8.40;99892.00;;;;10360005;28;20221;-77
2024/04/02 04:24:42;;;;;;;7.70;2.17;;;;;8.40;99888.00;;;;10377788;28;20297;-76
2024/04/02 04:29:45;;;;;;;9.77;2.87;;;;;8.40;99903.00;;;;10387885;28;20225;-76
2024/04/02 04:34:46;;;;;;;14.17;2.03;;;;;8.30;99907.00;;;;10368124;28;20238;-77
2024/04/02 04:39:47;;;;;;;8.10;1.63;;;;;8.30;99913.00;;;;10362117;28;20238;-76
2024/04/02 04:44:48;;;;;;;6.87;1.77;;;;;8.30;99921.00;;;;10378713;28;20267;-79
2024/04/02 04:49:49;;;;;;;12.83;2.03;;;;;8.30;99928.00;;;;10397031;28;20225;-76
2024/04/02 04:54:50;;;;;;;8.30;2.20;;;;;8.40;99927.00;;;;10374443;28;20222;-77
2024/04/02 04:59:51;;;;;;;10.97;2.50;;;;;8.50;99938.00;;;;10378077;28;20844;-77
2024/04/02 05:04:52;;;;;;;9.93;2.23;;;;;8.60;99933.00;;;;10378863;28;20686;-76
2024/04/02 05:09:53;;;;;;;15.07;2.67;;;;;8.60;99937.00;;;;10367744;28;20214;-76
2024/04/02 05:14:54;;;;;;;11.87;2.43;;;;;8.70;99937.00;;;;10378393;28;20218;-76
2024/04/02 05:19:58;;;;;;;9.03;2.67;;;;;8.70;99952.00;;;;10380144;28;20221;-77
2024/04/02 05:24:58;;;;;;;9.13;2.17;;;;;8.80;99953.00;;;;10375689;28;20705;-79
2024/04/02 05:29:59;;;;;;;11.07;2.40;;;;;8.90;99960.00;;;;10370305;28;20221;-77
2024/04/02 05:35:02;;;;;;;5.20;1.80;;;;;9.00;99961.00;;;;10365218;28;20225;-77
2024/04/02 05:40:05;;;;;;;13.43;2.23;;;;;9.10;99975.00;;;;10376088;28;20230;-77
2024/04/02 05:45:06;;;;;;;14.80;2.30;;;;;9.20;99972.00;;;;10357223;28;20566;-78
2024/04/02 05:50:08;;;;;;;11.17;2.60;;;;;9.30;99980.00;;;;10380706;28;20613;-79
2024/04/02 05:55:09;;;;;;;7.63;2.57;;;;;9.40;99983.00;;;;10361905;28;20272;-77
2024/04/02 06:00:11;;;;;;;10.83;2.07;;;;;9.40;100000.00;;;;10349439;28;20260;-78
2024/04/02 06:05:15;;;;;;;15.37;2.50;;;;;9.50;100004.00;;;;10366055;28;20305;-76
2024/04/02 06:10:16;;;;;;;9.53;1.93;;;;;9.60;100005.00;;;;10366960;28;20234;-77
2024/04/02 06:15:17;;;;;;;11.53;3.17;;;;;9.60;100008.00;;;;10372520;28;20218;-77
2024/04/02 06:20:18;;;;;;;19.10;2.33;;;;;9.70;100004.00;;;;10367366;28;20225;-78
2024/04/02 06:25:19;;;;;;;7.93;2.43;;;;;9.80;100012.00;;;;10391801;28;20226;-79
2024/04/02 06:30:20;;;;;;;11.17;2.60;;;;;9.90;100018.00;;;;10366068;28;20304;-80
2024/04/02 06:35:21;;;;;;;9.10;2.57;;;;;10.00;100016.00;;;;10397229;28;20213;-80
2024/04/02 06:40:22;;;;;;;7.53;1.93;;;;;10.40;100014.00;;;;10374318;28;20214;-79
2024/04/02 06:45:23;;;;;;;12.57;2.67;;;;;10.30;100012.00;;;;10389653;28;20234;-80
2024/04/02 06:50:23;;;;;;;10.20;2.43;;;;;10.20;100016.00;;;;10396537;28;20573;-81
2024/04/02 06:55:24;;;;;;;11.13;2.60;;;;;10.30;100019.00;;;;10376977;28;20221;-80
2024/04/02 07:00:25;;;;;;;8.90;1.97;;;;;10.40;100013.00;;;;10388607;28;20293;-81
2024/04/02 07:05:27;;;;;;;11.13;2.30;;;;;10.70;100021.00;;;;10354700;28;20260;-80
2024/04/02 07:10:28;;;;;;;11.00;1.93;;;;;10.80;100016.00;;;;10374940;28;20222;-80
2024/04/02 07:15:29;;;;;;;13.50;2.40;;;;;11.00;100018.00;;;;10374092;28;20801;-81
2024/04/02 07:20:30;;;;;;;11.37;2.40;;;;;11.20;100025.00;;;;10395848;28;20897;-81
2024/04/02 07:25:31;;;;;;;5.67;1.90;;;;;11.60;100030.00;;;;10400592;28;20222;-81
2024/04/02 07:30:31;;;;;;;10.50;2.37;;;;;11.90;100016.00;;;;10393362;28;20253;-81
2024/04/02 07:35:32;;;;;;;14.50;4.47;;;;;12.30;100014.00;;;;10385419;28;20300;-80
2024/04/02 07:40:34;;;;;;;7.57;3.10;;;;;13.10;100034.00;;;;10381984;28;20924;-79
2024/04/02 07:45:35;;;;;;;9.57;2.03;;;;;13.30;100021.00;;;;10379915;28;20585;-78
2024/04/02 07:50:36;;;;;;;12.60;2.67;;;;;13.20;100027.00;;;;10385311;28;20229;-78
2024/04/02 07:55:37;;;;;;;8.17;2.50;;;;;12.70;100030.00;;;;10401439;28;20229;-78
2024/04/02 08:00:40;;;;;;;9.90;2.57;;;;;12.20;100043.00;;;;10380722;28;20230;-79
2024/04/02 08:05:42;;;;;;;7.27;2.33;;;;;11.80;100052.00;;;;10373079;28;20239;-79
2024/04/02 08:10:44;;;;;;;9.37;2.23;;;;;11.80;100050.00;;;;10365652;28;21838;-78
2024/04/02 08:15:48;;;;;;;7.17;1.97;;;;;12.20;100054.00;;;;10373975;28;20764;-78
2024/04/02 08:20:49;;;;;;;10.50;2.27;;;;;11.80;100052.00;;;;10374572;28;20586;-76
2024/04/02 08:25:50;;;;;;;9.37;1.70;;;;;12.30;100055.00;;;;10369173;28;20232;-78
2024/04/02 08:30:51;;;;;;;5.93;1.97;;;;;12.30;100063.00;;;;10388644;28;20584;-78
2024/04/02 08:35:52;;;;;;;12.83;3.03;;;;;11.80;100076.00;;;;10370347;28;20221;-77
2024/04/02 08:40:59;;;;;;;10.20;2.43;;;;;12.20;100075.00;;;;10368924;28;20218;-79
2024/04/02 08:46:01;;;;;;;8.80;2.20;;;;;12.10;100086.00;;;;10366121;28;20222;-80
2024/04/02 08:51:05;;;;;;;9.50;2.60;;;;;11.50;100078.00;;;;10361213;28;20218;-78
2024/04/02 08:56:06;;;;;;;8.90;2.03;;;;;12.30;100088.00;;;;10366101;28;20275;-79
2024/04/02 09:01:08;;;;;;;12.90;2.50;;;;;12.30;100091.00;;;;10354478;28;20233;-78
2024/04/02 09:06:10;;;;;;;10.47;2.33;;;;;11.40;100106.00;;;;10390165;28;20227;-78
2024/04/02 09:11:11;;;;;;;9.17;2.13;;;;;11.60;100097.00;;;;10363208;28;20218;-78
2024/04/02 09:16:12;;;;;;;9.33;2.47;;;;;11.10;100108.00;;;;10379289;28;20457;-79
2024/04/02 09:21:13;;;;;;;13.27;2.73;;;;;10.40;100118.00;;;;10373550;28;20346;-79
2024/04/02 09:26:14;;;;;;;9.13;1.80;;;;;10.00;100119.00;;;;10380928;28;20241;-79
2024/04/02 09:31:15;;;;;;;6.83;2.40;;;;;10.00;100116.00;;;;10360382;28;20302;-79
2024/04/02 09:36:39;;;;;;;9.30;2.17;;;;;10.00;100118.00;;;;10381779;28;20272;-79
2024/04/02 09:41:42;;;;;;;10.43;2.20;;;;;10.70;100113.00;;;;10403373;28;20567;-80
2024/04/02 09:46:44;;;;;;;10.17;2.63;;;;;10.60;100117.00;;;;10355054;28;20323;-80
2024/04/02 09:51:46;;;;;;;11.77;2.87;;;;;10.50;100126.00;;;;10360444;28;20219;-79
2024/04/02 09:56:49;;;;;;;12.07;2.17;;;;;10.60;100127.00;;;;10370584;28;20794;-80
2024/04/02 10:01:51;;;;;;;14.03;2.40;;;;;11.00;100134.00;;;;10373841;28;20222;-80
2024/04/02 10:06:56;;;;;;;9.10;2.17;;;;;11.10;100121.00;;;;10371856;28;20225;-80
2024/04/02 10:11:57;;;;;;;9.73;2.77;;;;;11.40;100139.00;;;;10378217;28;20222;-79
2024/04/02 10:16:58;;;;;;;8.27;2.47;;;;;11.90;100130.00;;;;10364754;28;20230;-79
2024/04/02 10:21:59;;;;;;;10.87;2.50;;;;;12.10;100130.00;;;;10375006;28;20218;-78
2024/04/02 10:27:03;;;;;;;10.57;2.53;;;;;12.20;100143.00;;;;10352300;28;20306;-79
2024/04/02 10:32:05;;;;;;;8.90;2.70;;;;;12.70;100130.00;;;;10364946;28;20219;-79
2024/04/02 10:37:10;;;;;;;9.37;2.60;;;;;13.30;100138.00;;;;10374371;28;20219;-79
2024/04/02 10:42:11;;;;;;;9.33;2.13;;;;;14.10;100147.00;;;;10390494;28;21239;-79
2024/04/02 10:47:18;;;;;;;11.80;3.30;;;;;14.80;100144.00;;;;10365559;28;20609;-79
2024/04/02 10:52:19;;;;;;;9.60;2.38;;;;;14.30;100128.00;;;;10381923;28;20222;-79
2024/04/02 10:57:20;;;;;;;19.30;2.80;;;;;14.50;100142.00;;;;10386885;28;20267;-81
2024/04/02 11:02:21;;;;;;;10.75;2.67;;;;;14.40;100147.00;;;;10393466;28;20225;-80
2024/04/02 11:07:25;;;;;;;11.70;2.80;;;;;14.20;100157.00;;;;10373019;28;20226;-80
2024/04/02 11:12:27;;;;;;;10.43;2.75;;;;;13.70;100161.00;;;;10370775;28;20675;-80
2024/04/02 11:17:28;;;;;;;14.23;2.67;;;;;12.90;100170.00;;;;10387939;28;20222;-80
2024/04/02 11:28:04;;;;;;;9.30;2.78;;;;;13.70;100157.00;;;;10414650;28;20214;-79
2024/04/02 11:33:05;;;;;;;10.82;3.05;;;;;13.60;100159.00;;;;10376409;28;20229;-79
2024/04/02 11:38:06;;;;;;;8.80;2.30;;;;;13.20;100164.00;;;;10377179;28;20234;-78
2024/04/02 11:43:08;;;;;;;14.30;3.17;;;;;12.90;100166.00;;;;10376686;28;20657;-78
2024/04/02 11:48:09;;;;;;;7.82;1.98;;;;;13.20;100161.00;;;;10386889;28;20218;-79
2024/04/02 11:53:10;;;;;;;12.27;2.93;;;;;12.60;100184.00;;;;10390345;28;20237;-78
2024/04/02 12:03:30;;;;;;;6.57;2.53;;;;;11.90;100188.00;;;;10374006;28;20612;-79
2024/04/02 12:08:31;;;;;;;12.90;2.93;;;;;11.60;100187.00;;;;10379130;28;20226;-79
2024/04/02 12:13:32;;;;;;;8.13;2.73;;;;;11.70;100191.00;;;;10399264;28;20214;-79
2024/04/02 12:18:35;;;;;;;12.70;3.30;;;;;12.70;100184.00;;;;10379964;28;20230;-80
2024/04/02 12:23:36;;;;;;;7.50;2.33;;;;;12.90;100189.00;;;;10429104;28;20237;-83
2024/04/02 12:28:37;;;;;;;13.37;3.47;;;;;12.70;100189.00;;;;10596618;23;20227;-85
2024/04/02 12:33:38;;;;;;;8.37;2.60;;;;;12.70;100188.00;;;;10337641;28;20233;-87
2024/04/02 12:38:39;;;;;;;10.57;2.80;;;;;13.40;100177.00;;;;10321351;28;20227;-82
2024/04/02 12:43:41;;;;;;;7.80;2.42;;;;;14.00;100192.00;;;;10321959;28;20897;-87
2024/04/02 12:48:42;;;;;;;12.20;2.92;;;;;15.00;100201.00;;;;10346185;28;20241;-87
2024/04/02 12:53:42;;;;;;;11.20;2.78;;;;;15.50;100209.00;;;;10316549;28;20734;-85
2024/04/02 12:58:43;;;;;;;10.73;2.58;;;;;15.20;100200.00;;;;10342273;28;20322;-82
2024/04/02 13:03:45;;;;;;;11.18;3.03;;;;;14.60;100227.00;;;;10346105;28;20234;-83
2024/04/02 13:08:47;;;;;;;10.65;2.75;;;;;14.50;100232.00;;;;10330376;28;20222;-86
2024/04/02 13:13:52;;;;;;;10.63;2.90;;;;;15.00;100228.00;;;;10333185;28;20227;-85
2024/04/02 13:18:53;;;;;;;14.07;2.65;;;;;15.20;100233.00;;;;10327055;28;20273;-84
2024/04/02 13:23:56;;;;;;;14.02;3.00;;;;;15.60;100218.00;;;;10324213;28;20241;-83
2024/04/02 13:28:59;;;;;;;13.82;2.53;;;;;15.90;100225.00;;;;10321755;28;20574;-85
2024/04/02 13:34:02;;;;;;;9.10;2.40;;;;;15.50;100234.00;;;;10343683;28;20674;-81
2024/04/02 13:39:03;;;;;;;10.82;2.60;;;;;15.30;100233.00;;;;10337484;28;20223;-81
2024/04/02 13:44:04;;;;;;;11.65;2.80;;;;;15.70;100236.00;;;;10347605;28;20219;-81
2024/04/02 13:49:05;;;;;;;7.20;2.40;;;;;15.60;100244.00;;;;10363248;28;20272;-82
2024/04/02 13:54:06;;;;;;;10.07;2.78;;;;;15.40;100246.00;;;;10338782;28;20223;-81
2024/04/02 13:59:07;;;;;;;10.55;2.50;;;;;15.00;100235.00;;;;10322255;28;20298;-81
2024/04/02 14:04:08;;;;;;;10.13;3.30;;;;;15.30;100237.00;;;;10316848;28;20223;-81
2024/04/02 14:09:09;;;;;;;7.97;2.17;;;;;15.90;100228.00;;;;10330184;28;20214;-81
2024/04/02 14:14:12;;;;;;;12.63;2.63;;;;;16.20;100229.00;;;;10341328;28;20992;-82
2024/04/02 14:19:12;;;;;;;15.27;2.33;;;;;15.80;100236.00;;;;10360416;28;21151;-81
2024/04/02 14:24:13;;;;;;;10.93;2.90;;;;;14.40;100240.00;;;;10359363;28;20260;-81
2024/04/02 14:29:14;;;;;;;8.18;2.38;;;;;15.10;100251.00;;;;10371561;28;20631;-81
2024/04/02 14:34:16;;;;;;;11.20;2.15;;;;;15.10;100235.00;;;;10350147;28;20221;-81
2024/04/02 14:39:20;;;;;;;9.23;2.65;;;;;15.70;100228.00;;;;10378317;28;20229;-81
2024/04/02 14:44:21;;;;;;;8.27;2.40;;;;;15.70;100240.00;;;;10370611;28;20229;-84
2024/04/02 14:49:22;;;;;;;7.13;2.60;;;;;15.00;100253.00;;;;10386717;28;20211;-84
2024/04/02 14:54:23;;;;;;;7.28;2.15;;;;;14.60;100253.00;;;;10404325;28;20224;-83
2024/04/02 14:59:25;;;;;;;8.32;2.58;;;;;14.70;100256.00;;;;10377964;28;20225;-84
2024/04/02 15:04:26;;;;;;;13.27;2.30;;;;;14.80;100266.00;;;;10358568;28;20221;-84
2024/04/02 15:09:27;;;;;;;9.80;2.92;;;;;14.40;100260.00;;;;10360972;28;20666;-84
2024/04/02 15:14:28;;;;;;;8.93;2.40;;;;;14.50;100258.00;;;;10359868;28;20228;-84
2024/04/02 15:19:30;;;;;;;8.07;2.53;;;;;14.60;100251.00;;;;10375652;28;20222;-82
2024/04/02 15:24:31;;;;;;;9.68;2.38;;;;;14.70;100249.00;;;;10369229;28;20519;-84
2024/04/02 15:29:33;;;;;;;8.68;2.83;;;;;15.20;100250.00;;;;10358505;28;20216;-84
2024/04/02 15:34:34;;;;;;;10.32;2.45;;;;;15.00;100253.00;;;;10371186;28;20278;-84
2024/04/02 15:39:35;;;;;;;8.88;2.58;;;;;14.30;100252.00;;;;10381116;28;20233;-83
2024/04/02 15:44:36;;;;;;;9.00;2.78;;;;;14.20;100250.00;;;;10370727;28;20214;-83
2024/04/02 15:49:37;;;;;;;13.40;2.38;;;;;14.10;100257.00;;;;10370791;28;20222;-83
2024/04/02 15:54:38;;;;;;;10.15;2.60;;;;;14.30;100257.00;;;;10375845;28;20218;-82
2024/04/02 15:59:39;;;;;;;11.45;3.15;;;;;14.10;100256.00;;;;10372891;28;20393;-82
2024/04/02 16:04:41;;;;;;;12.20;2.30;;;;;14.10;100255.00;;;;10364700;28;20228;-82
2024/04/02 16:09:43;;;;;;;10.18;2.40;;;;;14.20;100257.00;;;;10374700;28;20214;-82
2024/04/02 16:14:44;;;;;;;9.07;2.60;;;;;14.50;100256.00;;;;10373282;28;20241;-83
2024/04/02 16:19:46;;;;;;;9.35;2.63;;;;;14.20;100254.00;;;;10376656;28;20237;-83
2024/04/02 16:24:47;;;;;;;10.23;3.10;;;;;14.10;100262.00;;;;10385671;28;20233;-83
2024/04/02 16:29:48;;;;;;;10.00;2.65;;;;;14.30;100264.00;;;;10398661;28;20225;-83
2024/04/02 16:34:51;;;;;;;12.38;3.22;;;;;14.30;100258.00;;;;10384370;28;20272;-82
2024/04/02 16:39:52;;;;;;;7.97;2.75;;;;;14.20;100259.00;;;;10362851;28;20218;-82
2024/04/02 16:44:53;;;;;;;9.80;2.75;;;;;14.10;100257.00;;;;10357801;28;20291;-84
2024/04/02 16:49:54;;;;;;;9.15;2.83;;;;;14.00;100263.00;;;;10365415;28;20256;-83
2024/04/02 16:54:55;;;;;;;10.02;2.33;;;;;13.90;100253.00;;;;10389046;28;20233;-83
2024/04/02 16:59:57;;;;;;;11.15;2.10;;;;;13.80;100254.00;;;;10354685;28;20305;-79
2024/04/02 17:05:00;;;;;;;9.80;2.50;;;;;13.70;100254.00;;;;10367535;28;20313;-81
2024/04/02 17:10:02;;;;;;;10.07;2.40;;;;;13.50;100260.00;;;;10371898;28;20737;-80
2024/04/02 17:15:03;;;;;;;12.50;3.25;;;;;13.30;100256.00;;;;10375708;28;20276;-80
2024/04/02 17:20:09;;;;;;;8.90;2.72;;;;;13.20;100257.00;;;;10382409;28;20226;-80
2024/04/02 17:25:10;;;;;;;8.02;2.25;;;;;13.00;100262.00;;;;10379955;28;20328;-81
2024/04/02 17:30:11;;;;;;;9.50;2.97;;;;;12.90;100261.00;;;;10382661;28;20561;-80
2024/04/02 17:35:12;;;;;;;8.73;2.77;;;;;12.70;100256.00;;;;10397410;28;20222;-80
2024/04/02 17:40:13;;;;;;;8.10;2.23;;;;;12.50;100254.00;;;;10385568;28;20602;-80
2024/04/02 17:45:14;;;;;;;14.73;2.33;;;;;12.40;100255.00;;;;10356458;28;20253;-80
2024/04/02 17:50:15;;;;;;;9.87;2.63;;;;;12.20;100251.00;;;;10359148;28;20227;-79
2024/04/02 17:55:16;;;;;;;9.03;2.40;;;;;12.10;100255.00;;;;10388964;28;20214;-80
2024/04/02 18:00:17;;;;;;;11.90;2.67;;;;;11.90;100260.00;;;;10371184;28;20225;-80
2024/04/02 18:05:18;;;;;;;10.07;3.50;;;;;11.80;100259.00;;;;10384366;28;21051;-81
2024/04/02 18:10:19;;;;;;;7.50;2.63;;;;;11.60;100245.00;;;;10386810;28;20222;-82
2024/04/02 18:15:21;;;;;;;11.57;2.63;;;;;11.60;100239.00;;;;10383498;28;20249;-83
2024/04/02 18:20:22;;;;;;;11.53;3.30;;;;;11.60;100243.00;;;;10381592;28;20981;-82
2024/04/02 18:25:23;;;;;;;14.20;3.10;;;;;11.60;100236.00;;;;10381694;28;20217;-82
2024/04/02 18:30:25;;;;;;;12.13;3.20;;;;;11.70;100238.00;;;;10359052;28;20983;-82
2024/04/02 18:35:30;;;;;;;10.37;3.37;;;;;11.70;100235.00;;;;10382112;28;20305;-82
2024/04/02 18:40:31;;;;;;;6.83;2.10;;;;;11.80;100238.00;;;;10385547;28;20217;-82
2024/04/02 18:45:32;;;;;;;12.47;3.13;;;;;11.80;100259.00;;;;10368945;28;20616;-82
2024/04/02 18:50:35;;;;;;;10.73;2.67;;;;;11.70;100281.00;;;;10372316;28;20214;-82
2024/04/02 18:55:36;;;;;;;7.23;1.73;;;;;11.80;100299.00;;;;10372088;28;20942;-82
2024/04/02 19:00:37;;;;;;;5.10;1.57;;;;;12.00;100301.00;;;;10425181;28;20245;-82
2024/04/02 19:05:38;;;;;;;3.90;1.30;;;;;12.20;100337.00;;;;10363921;28;20226;-83
2024/04/02 19:10:39;;;;;;;3.47;1.20;;;;;12.20;100309.00;;;;10388566;28;20694;-82
2024/04/02 19:15:40;;;;;;;1.83;0.80;;;;;12.10;100295.00;;;;10384797;28;20308;-82
2024/04/02 19:20:42;;;;;;;1.50;0.87;;;;;12.10;100291.00;;;;10360633;28;20230;-79
2024/04/02 19:25:51;;;;;;;1.73;0.93;;;;;12.10;100291.00;;;;10357386;28;20306;-81
2024/04/02 19:30:52;;;;;;;1.87;0.90;;;;;12.10;100285.00;;;;10364934;28;20209;-81
2024/04/02 19:35:57;;;;;;;2.93;0.80;;;;;12.00;100290.00;;;;10390397;28;20351;-80
2024/04/02 19:41:05;;;;;;;2.77;1.13;;;;;12.10;100300.00;;;;10373523;28;20222;-81
2024/04/02 19:46:08;;;;;;;3.07;1.20;;;;;12.10;100299.00;;;;10389691;28;20851;-80
2024/04/02 19:51:10;;;;;;;2.07;1.00;;;;;12.10;100301.00;;;;10381313;28;20218;-80
2024/04/02 19:56:12;;;;;;;3.60;1.10;;;;;12.00;100305.00;;;;10373724;28;20334;-80
2024/04/02 20:01:15;;;;;;;2.03;0.87;;;;;12.00;100308.00;;;;10360050;28;20222;-79
2024/04/02 20:06:17;;;;;;;3.17;1.13;;;;;11.90;100308.00;;;;10375679;28;20273;-79
2024/04/02 20:11:18;;;;;;;1.50;0.90;;;;;11.70;100303.00;;;;10356686;28;20218;-80
2024/04/02 20:16:19;;;;;;;6.63;1.50;;;;;11.70;100308.00;;;;10361755;28;21011;-79
2024/04/02 20:21:21;;;;;;;4.20;1.20;;;;;11.60;100313.00;;;;10390650;28;20250;-80
2024/04/02 20:26:23;;;;;;;4.60;1.70;;;;;11.50;100298.00;;;;10362734;28;20233;-80
2024/04/02 20:31:26;;;;;;;2.47;1.30;;;;;11.40;100312.00;;;;10359009;28;20218;-82
2024/04/02 20:36:27;;;;;;;5.30;1.67;;;;;11.30;100301.00;;;;10367939;28;20230;-83
2024/04/02 20:41:28;;;;;;;3.83;1.60;;;;;11.30;100292.00;;;;10381528;28;20224;-84
2024/04/02 20:46:29;;;;;;;6.53;1.83;;;;;11.20;100292.00;;;;10384104;28;20224;-82
2024/04/02 20:51:30;;;;;;;5.23;1.53;;;;;11.10;100278.00;;;;10374327;28;20221;-82
2024/04/02 20:56:31;;;;;;;4.97;1.40;;;;;11.00;100262.00;;;;10378055;28;20218;-82
2024/04/02 21:01:32;;;;;;;2.83;1.50;;;;;10.90;100253.00;;;;10366110;28;20253;-81
2024/04/02 21:06:33;;;;;;;3.33;2.27;;;;;10.90;100245.00;;;;10374726;28;20224;-82
2024/04/02 21:11:34;;;;;;;4.13;1.50;;;;;10.80;100244.00;;;;10363383;28;20279;-81
2024/04/02 21:16:37;;;;;;;4.43;1.63;;;;;10.80;100249.00;;;;10367968;28;20265;-81
2024/04/02 21:21:40;;;;;;;6.10;1.70;;;;;10.80;100260.00;;;;10371918;28;21150;-82
2024/04/02 21:26:41;;;;;;;5.23;1.67;;;;;10.70;100255.00;;;;10372618;28;20226;-81
2024/04/02 21:31:44;;;;;;;6.20;1.57;;;;;10.70;100256.00;;;;10368906;28;20367;-80
2024/04/02 21:36:45;;;;;;;7.10;2.70;;;;;10.60;100249.00;;;;10351205;28;20263;-81
2024/04/02 21:41:46;;;;;;;4.70;1.67;;;;;10.60;100250.00;;;;10354879;28;21061;-78
2024/04/02 21:46:47;;;;;;;4.80;1.43;;;;;10.50;100249.00;;;;10361896;28;20226;-79
2024/04/02 21:51:48;;;;;;;4.37;2.17;;;;;10.50;100248.00;;;;10371647;28;20236;-76
2024/04/02 21:56:49;;;;;;;3.60;2.13;;;;;10.50;100241.00;;;;10369771;28;20302;-77
2024/04/02 22:01:50;;;;;;;4.23;1.63;;;;;10.40;100244.00;;;;10379971;28;20225;-78
2024/04/02 22:06:51;;;;;;;5.50;1.90;;;;;10.40;100236.00;;;;10354777;28;20222;-78
2024/04/02 22:11:52;;;;;;;7.50;2.10;;;;;10.40;100238.00;;;;10360413;28;20210;-77
2024/04/02 22:16:53;;;;;;;7.27;2.00;;;;;10.40;100236.00;;;;10368074;28;20275;-78
2024/04/02 22:21:54;;;;;;;8.47;2.73;;;;;10.40;100236.00;;;;10385521;28;20221;-78
2024/04/02 22:26:55;;;;;;;3.00;1.60;;;;;10.40;100239.00;;;;10362353;28;20207;-77
2024/04/02 22:31:56;;;;;;;5.80;1.80;;;;;10.40;100238.00;;;;10375736;28;20233;-78
2024/04/02 22:36:57;;;;;;;4.47;1.83;;;;;10.40;100236.00;;;;10395410;28;20210;-78
2024/04/02 22:41:58;;;;;;;6.83;2.30;;;;;10.40;100237.00;;;;10377086;28;20229;-78
2024/04/02 22:46:59;;;;;;;6.80;2.70;;;;;10.40;100234.00;;;;10376619;28;20585;-79
2024/04/02 22:52:05;;;;;;;7.67;2.00;;;;;10.40;100230.00;;;;10399077;28;20224;-85
2024/04/02 22:57:06;;;;;;;6.23;2.30;;;;;10.40;100224.00;;;;10384650;28;20232;-85
2024/04/02 23:02:08;;;;;;;7.70;1.93;;;;;10.40;100215.00;;;;10378437;28;20222;-84
2024/04/02 23:07:09;;;;;;;7.20;2.43;;;;;10.40;100214.00;;;;10363258;28;20242;-85
2024/04/02 23:12:10;;;;;;;6.87;2.27;;;;;10.40;100207.00;;;;10369562;28;20229;-85
2024/04/02 23:17:11;;;;;;;6.47;1.73;;;;;10.40;100207.00;;;;10389510;28;20222;-84
2024/04/02 23:22:12;;;;;;;6.83;2.13;;;;;10.40;100203.00;;;;10370393;28;20835;-85
2024/04/02 23:27:13;;;;;;;6.20;2.03;;;;;10.30;100204.00;;;;10405078;28;20218;-85
2024/04/02 23:32:17;;;;;;;7.97;2.30;;;;;10.30;100204.00;;;;10358537;28;20729;-86
2024/04/02 23:37:18;;;;;;;7.37;2.20;;;;;10.30;100205.00;;;;10374040;28;20225;-86
2024/04/02 23:42:19;;;;;;;6.53;2.17;;;;;10.30;100187.00;;;;10379884;28;20237;-85
2024/04/02 23:47:20;;;;;;;5.90;1.93;;;;;10.20;100180.00;;;;10372120;28;20592;-87
2024/04/02 23:52:21;;;;;;;5.93;1.80;;;;;10.20;100185.00;;;;10388175;28;20229;-85
2024/04/02 23:57:22;;;;;;;7.43;2.13;;;;;10.20;100175.00;;;;10381497;28;20867;-87
